sensor_id;sensor_type;location;lat;lon;timestamp;temperature;humidity
19496;DHT22;9888;48.606;9.630;2023-11-21T00:00:15;6.10;99.90
19496;DHT22;9888;48.606;9.630;2023-11-21T00:02:44;6.10;99.90
19496;DHT22;9888;48.606;9.630;2023-11-21T00:05:14;6.00;99.90
19496;DHT22;9888;48.606;9.630;2023-11-21T00:07:43;6.10;99.90
19496;DHT22;9888;48.606;9.630;2023-11-21T00:10:12;6.10;99.90
19496;DHT22;9888;48.606;9.630;2023-11-21T00:12:41;6.10;99.90
19496;DHT22;9888;48.606;9.630;2023-11-21T00:15:10;6.10;99.90
19496;DHT22;9888;48.606;9.630;2023-11-21T00:17:46;6.10;99.90
19496;DHT22;9888;48.606;9.630;2023-11-21T00:20:14;6.10;99.90
19496;DHT22;9888;48.606;9.630;2023-11-21T00:22:41;6.10;99.90
19496;DHT22;9888;48.606;9.630;2023-11-21T00:25:08;6.00;99.90
19496;DHT22;9888;48.606;9.630;2023-11-21T00:27:39;6.00;99.90
19496;DHT22;9888;48.606;9.630;2023-11-21T00:30:07;6.00;99.90
19496;DHT22;9888;48.606;9.630;2023-11-21T00:32:38;6.00;99.90
19496;DHT22;9888;48.606;9.630;2023-11-21T00:35:06;6.00;99.90
19496;DHT22;9888;48.606;9.630;2023-11-21T00:37:33;6.00;99.90
19496;DHT22;9888;48.606;9.630;2023-11-21T00:40:01;6.00;99.90
19496;DHT22;9888;48.606;9.630;2023-11-21T00:42:31;6.00;99.90
19496;DHT22;9888;48.606;9.630;2023-11-21T00:45:03;6.00;99.90
19496;DHT22;9888;48.606;9.630;2023-11-21T00:47:40;6.10;99.90
19496;DHT22;9888;48.606;9.630;2023-11-21T00:50:07;6.00;99.90
19496;DHT22;9888;48.606;9.630;2023-11-21T00:52:36;6.00;99.90
19496;DHT22;9888;48.606;9.630;2023-11-21T00:55:05;6.00;99.90
19496;DHT22;9888;48.606;9.630;2023-11-21T00:57:35;6.00;99.90
19496;DHT22;9888;48.606;9.630;2023-11-21T01:00:04;6.00;99.90
19496;DHT22;9888;48.606;9.630;2023-11-21T01:02:40;6.00;99.90
19496;DHT22;9888;48.606;9.630;2023-11-21T01:05:09;6.00;99.90
19496;DHT22;9888;48.606;9.630;2023-11-21T01:07:37;6.10;99.90
19496;DHT22;9888;48.606;9.630;2023-11-21T01:10:04;6.10;99.90
19496;DHT22;9888;48.606;9.630;2023-11-21T01:12:38;6.10;99.90
19496;DHT22;9888;48.606;9.630;2023-11-21T01:15:06;6.20;99.90
19496;DHT22;9888;48.606;9.630;2023-11-21T01:17:34;6.20;99.90
19496;DHT22;9888;48.606;9.630;2023-11-21T01:20:03;6.20;99.90
19496;DHT22;9888;48.606;9.630;2023-11-21T01:22:33;6.20;99.90
19496;DHT22;9888;48.606;9.630;2023-11-21T01:25:01;6.20;99.90
19496;DHT22;9888;48.606;9.630;2023-11-21T01:27:31;6.20;99.90
19496;DHT22;9888;48.606;9.630;2023-11-21T01:29:58;6.20;99.90
19496;DHT22;9888;48.606;9.630;2023-11-21T01:32:28;6.30;99.90
19496;DHT22;9888;48.606;9.630;2023-11-21T01:34:56;6.30;99.90
19496;DHT22;9888;48.606;9.630;2023-11-21T01:37:26;6.30;99.90
19496;DHT22;9888;48.606;9.630;2023-11-21T01:39:54;6.30;99.90
19496;DHT22;9888;48.606;9.630;2023-11-21T01:42:22;6.30;99.90
19496;DHT22;9888;48.606;9.630;2023-11-21T01:48:12;6.30;99.90
19496;DHT22;9888;48.606;9.630;2023-11-21T01:50:40;6.30;99.90
19496;DHT22;9888;48.606;9.630;2023-11-21T01:53:12;6.20;99.90
19496;DHT22;9888;48.606;9.630;2023-11-21T01:55:41;6.20;99.90
19496;DHT22;9888;48.606;9.630;2023-11-21T01:58:10;6.20;99.90
19496;DHT22;9888;48.606;9.630;2023-11-21T02:00:39;6.20;99.90
19496;DHT22;9888;48.606;9.630;2023-11-21T02:03:06;6.20;99.90
19496;DHT22;9888;48.606;9.630;2023-11-21T02:05:33;6.20;99.90
19496;DHT22;9888;48.606;9.630;2023-11-21T02:08:00;6.10;99.90
19496;DHT22;9888;48.606;9.630;2023-11-21T02:10:30;6.10;99.90
19496;DHT22;9888;48.606;9.630;2023-11-21T02:12:57;6.10;99.90
19496;DHT22;9888;48.606;9.630;2023-11-21T02:15:27;6.10;99.90
19496;DHT22;9888;48.606;9.630;2023-11-21T02:17:57;6.00;99.90
19496;DHT22;9888;48.606;9.630;2023-11-21T02:20:25;6.10;99.90
19496;DHT22;9888;48.606;9.630;2023-11-21T02:23:00;6.10;99.90
19496;DHT22;9888;48.606;9.630;2023-11-21T02:25:29;6.10;99.90
19496;DHT22;9888;48.606;9.630;2023-11-21T02:28:01;6.00;99.90
19496;DHT22;9888;48.606;9.630;2023-11-21T02:30:30;6.10;99.90
19496;DHT22;9888;48.606;9.630;2023-11-21T02:33:06;6.10;99.90
19496;DHT22;9888;48.606;9.630;2023-11-21T02:35:43;6.10;99.90
19496;DHT22;9888;48.606;9.630;2023-11-21T02:38:11;6.10;99.90
19496;DHT22;9888;48.606;9.630;2023-11-21T02:40:39;6.10;99.90
19496;DHT22;9888;48.606;9.630;2023-11-21T02:43:16;6.10;99.90
19496;DHT22;9888;48.606;9.630;2023-11-21T02:45:45;6.10;99.90
19496;DHT22;9888;48.606;9.630;2023-11-21T02:48:13;6.10;99.90
19496;DHT22;9888;48.606;9.630;2023-11-21T02:50:40;6.10;99.90
19496;DHT22;9888;48.606;9.630;2023-11-21T02:53:08;6.10;99.90
19496;DHT22;9888;48.606;9.630;2023-11-21T02:55:37;6.10;99.90
19496;DHT22;9888;48.606;9.630;2023-11-21T02:58:04;6.00;99.90
19496;DHT22;9888;48.606;9.630;2023-11-21T03:00:34;6.00;99.90
19496;DHT22;9888;48.606;9.630;2023-11-21T03:03:02;6.00;99.90
19496;DHT22;9888;48.606;9.630;2023-11-21T03:05:31;6.00;99.90
19496;DHT22;9888;48.606;9.630;2023-11-21T03:08:03;6.00;99.90
19496;DHT22;9888;48.606;9.630;2023-11-21T03:10:30;6.00;99.90
19496;DHT22;9888;48.606;9.630;2023-11-21T03:13:01;6.00;99.90
19496;DHT22;9888;48.606;9.630;2023-11-21T03:15:29;6.00;99.90
19496;DHT22;9888;48.606;9.630;2023-11-21T03:18:03;6.00;99.90
19496;DHT22;9888;48.606;9.630;2023-11-21T03:20:31;6.00;99.90
19496;DHT22;9888;48.606;9.630;2023-11-21T03:22:59;6.00;99.90
19496;DHT22;9888;48.606;9.630;2023-11-21T03:25:26;6.00;99.90
19496;DHT22;9888;48.606;9.630;2023-11-21T03:27:54;6.00;99.90
19496;DHT22;9888;48.606;9.630;2023-11-21T03:30:22;6.00;99.90
19496;DHT22;9888;48.606;9.630;2023-11-21T03:32:50;6.00;99.90
19496;DHT22;9888;48.606;9.630;2023-11-21T03:35:18;6.00;99.90
19496;DHT22;9888;48.606;9.630;2023-11-21T03:37:47;6.10;99.90
19496;DHT22;9888;48.606;9.630;2023-11-21T03:40:15;6.10;99.90
19496;DHT22;9888;48.606;9.630;2023-11-21T03:42:43;6.10;99.90
19496;DHT22;9888;48.606;9.630;2023-11-21T03:45:10;6.10;99.90
19496;DHT22;9888;48.606;9.630;2023-11-21T03:47:39;6.10;99.90
19496;DHT22;9888;48.606;9.630;2023-11-21T03:50:07;6.10;99.90
19496;DHT22;9888;48.606;9.630;2023-11-21T03:52:39;6.10;99.90
19496;DHT22;9888;48.606;9.630;2023-11-21T03:55:07;6.10;99.90
19496;DHT22;9888;48.606;9.630;2023-11-21T03:57:35;6.10;99.90
19496;DHT22;9888;48.606;9.630;2023-11-21T04:00:02;6.10;99.90
19496;DHT22;9888;48.606;9.630;2023-11-21T04:02:31;6.10;99.90
19496;DHT22;9888;48.606;9.630;2023-11-21T04:04:59;6.10;99.90
19496;DHT22;9888;48.606;9.630;2023-11-21T04:10:50;6.10;99.90
19496;DHT22;9888;48.606;9.630;2023-11-21T04:13:20;6.10;99.90
19496;DHT22;9888;48.606;9.630;2023-11-21T04:15:48;6.10;99.90
19496;DHT22;9888;48.606;9.630;2023-11-21T04:18:15;6.10;99.90
19496;DHT22;9888;48.606;9.630;2023-11-21T04:20:43;6.20;99.90
19496;DHT22;9888;48.606;9.630;2023-11-21T04:23:11;6.20;99.90
19496;DHT22;9888;48.606;9.630;2023-11-21T04:25:40;6.10;99.90
19496;DHT22;9888;48.606;9.630;2023-11-21T04:28:09;6.10;99.90
19496;DHT22;9888;48.606;9.630;2023-11-21T04:30:38;6.10;99.90
19496;DHT22;9888;48.606;9.630;2023-11-21T04:33:06;6.10;99.90
19496;DHT22;9888;48.606;9.630;2023-11-21T04:35:34;6.10;99.90
19496;DHT22;9888;48.606;9.630;2023-11-21T04:38:02;6.10;99.90
19496;DHT22;9888;48.606;9.630;2023-11-21T04:40:30;6.10;99.90
19496;DHT22;9888;48.606;9.630;2023-11-21T04:42:59;6.00;99.90
19496;DHT22;9888;48.606;9.630;2023-11-21T04:45:28;6.10;99.90
19496;DHT22;9888;48.606;9.630;2023-11-21T04:47:55;6.00;99.90
19496;DHT22;9888;48.606;9.630;2023-11-21T04:50:22;6.00;99.90
19496;DHT22;9888;48.606;9.630;2023-11-21T04:52:50;6.00;99.90
19496;DHT22;9888;48.606;9.630;2023-11-21T04:55:17;6.00;99.90
19496;DHT22;9888;48.606;9.630;2023-11-21T04:57:47;6.00;99.90
19496;DHT22;9888;48.606;9.630;2023-11-21T05:00:15;6.00;99.90
19496;DHT22;9888;48.606;9.630;2023-11-21T05:02:43;6.00;99.90
19496;DHT22;9888;48.606;9.630;2023-11-21T05:05:11;6.00;99.90
19496;DHT22;9888;48.606;9.630;2023-11-21T05:07:40;6.00;99.90
19496;DHT22;9888;48.606;9.630;2023-11-21T05:10:08;6.00;99.90
19496;DHT22;9888;48.606;9.630;2023-11-21T05:12:42;6.00;99.90
19496;DHT22;9888;48.606;9.630;2023-11-21T05:15:14;6.00;99.90
19496;DHT22;9888;48.606;9.630;2023-11-21T05:17:42;6.00;99.90
19496;DHT22;9888;48.606;9.630;2023-11-21T05:20:20;6.00;99.90
19496;DHT22;9888;48.606;9.630;2023-11-21T05:23:05;6.00;99.90
19496;DHT22;9888;48.606;9.630;2023-11-21T05:25:31;6.10;99.90
19496;DHT22;9888;48.606;9.630;2023-11-21T05:28:03;6.10;99.90
19496;DHT22;9888;48.606;9.630;2023-11-21T05:30:30;6.10;99.90
19496;DHT22;9888;48.606;9.630;2023-11-21T05:32:58;6.10;99.90
19496;DHT22;9888;48.606;9.630;2023-11-21T05:35:26;6.10;99.90
19496;DHT22;9888;48.606;9.630;2023-11-21T05:37:54;6.10;99.90
19496;DHT22;9888;48.606;9.630;2023-11-21T05:40:22;6.10;99.90
19496;DHT22;9888;48.606;9.630;2023-11-21T05:42:50;6.10;99.90
19496;DHT22;9888;48.606;9.630;2023-11-21T05:45:20;6.10;99.90
19496;DHT22;9888;48.606;9.630;2023-11-21T05:47:49;6.10;99.90
19496;DHT22;9888;48.606;9.630;2023-11-21T05:50:17;6.10;99.90
19496;DHT22;9888;48.606;9.630;2023-11-21T05:52:46;6.10;99.90
19496;DHT22;9888;48.606;9.630;2023-11-21T05:55:14;6.00;99.90
19496;DHT22;9888;48.606;9.630;2023-11-21T05:57:44;6.00;99.90
19496;DHT22;9888;48.606;9.630;2023-11-21T06:00:14;6.00;99.90
19496;DHT22;9888;48.606;9.630;2023-11-21T06:02:53;6.10;99.90
19496;DHT22;9888;48.606;9.630;2023-11-21T06:05:23;6.10;99.90
19496;DHT22;9888;48.606;9.630;2023-11-21T06:07:55;6.00;99.90
19496;DHT22;9888;48.606;9.630;2023-11-21T06:10:25;6.10;99.90
19496;DHT22;9888;48.606;9.630;2023-11-21T06:12:52;6.10;99.90
19496;DHT22;9888;48.606;9.630;2023-11-21T06:15:21;6.00;99.90
19496;DHT22;9888;48.606;9.630;2023-11-21T06:17:49;6.10;99.90
19496;DHT22;9888;48.606;9.630;2023-11-21T06:20:19;6.20;99.90
19496;DHT22;9888;48.606;9.630;2023-11-21T06:22:48;6.10;99.90
19496;DHT22;9888;48.606;9.630;2023-11-21T06:25:16;6.10;99.90
19496;DHT22;9888;48.606;9.630;2023-11-21T06:27:45;6.10;99.90
19496;DHT22;9888;48.606;9.630;2023-11-21T06:30:13;6.10;99.90
19496;DHT22;9888;48.606;9.630;2023-11-21T06:32:42;6.10;99.90
19496;DHT22;9888;48.606;9.630;2023-11-21T06:35:12;6.00;99.90
19496;DHT22;9888;48.606;9.630;2023-11-21T06:37:40;6.10;99.90
19496;DHT22;9888;48.606;9.630;2023-11-21T06:40:08;6.10;99.90
19496;DHT22;9888;48.606;9.630;2023-11-21T06:42:35;6.10;99.90
19496;DHT22;9888;48.606;9.630;2023-11-21T06:45:05;6.10;99.90
19496;DHT22;9888;48.606;9.630;2023-11-21T06:47:33;6.10;99.90
19496;DHT22;9888;48.606;9.630;2023-11-21T06:50:01;6.10;99.90
19496;DHT22;9888;48.606;9.630;2023-11-21T06:52:28;6.10;99.90
19496;DHT22;9888;48.606;9.630;2023-11-21T06:54:55;6.10;99.90
19496;DHT22;9888;48.606;9.630;2023-11-21T06:57:26;6.10;99.90
19496;DHT22;9888;48.606;9.630;2023-11-21T06:59:53;6.10;99.90
19496;DHT22;9888;48.606;9.630;2023-11-21T07:02:21;6.10;99.90
19496;DHT22;9888;48.606;9.630;2023-11-21T07:04:48;6.00;99.90
19496;DHT22;9888;48.606;9.630;2023-11-21T07:07:16;6.00;99.90
19496;DHT22;9888;48.606;9.630;2023-11-21T07:09:44;5.90;99.90
19496;DHT22;9888;48.606;9.630;2023-11-21T07:12:11;5.90;99.90
19496;DHT22;9888;48.606;9.630;2023-11-21T07:14:40;5.90;99.90
19496;DHT22;9888;48.606;9.630;2023-11-21T07:17:10;6.10;99.90
19496;DHT22;9888;48.606;9.630;2023-11-21T07:19:38;6.10;99.90
19496;DHT22;9888;48.606;9.630;2023-11-21T07:22:06;6.20;99.90
19496;DHT22;9888;48.606;9.630;2023-11-21T07:24:34;6.30;99.90
19496;DHT22;9888;48.606;9.630;2023-11-21T07:27:03;6.40;99.90
19496;DHT22;9888;48.606;9.630;2023-11-21T07:29:33;6.40;99.90
19496;DHT22;9888;48.606;9.630;2023-11-21T07:32:00;6.40;99.90
19496;DHT22;9888;48.606;9.630;2023-11-21T07:34:27;6.40;99.90
19496;DHT22;9888;48.606;9.630;2023-11-21T07:36:54;6.30;99.90
19496;DHT22;9888;48.606;9.630;2023-11-21T07:39:21;6.40;99.90
19496;DHT22;9888;48.606;9.630;2023-11-21T07:41:49;6.40;99.90
19496;DHT22;9888;48.606;9.630;2023-11-21T07:44:16;6.40;99.90
19496;DHT22;9888;48.606;9.630;2023-11-21T07:46:47;6.40;99.90
19496;DHT22;9888;48.606;9.630;2023-11-21T07:49:16;6.50;99.90
19496;DHT22;9888;48.606;9.630;2023-11-21T07:51:46;6.60;99.90
19496;DHT22;9888;48.606;9.630;2023-11-21T07:54:13;6.70;99.90
19496;DHT22;9888;48.606;9.630;2023-11-21T07:56:41;6.70;99.90
19496;DHT22;9888;48.606;9.630;2023-11-21T07:59:08;6.70;99.90
19496;DHT22;9888;48.606;9.630;2023-11-21T08:01:36;6.70;99.90
19496;DHT22;9888;48.606;9.630;2023-11-21T08:04:03;6.70;99.90
19496;DHT22;9888;48.606;9.630;2023-11-21T08:06:33;6.70;99.90
19496;DHT22;9888;48.606;9.630;2023-11-21T08:09:00;6.70;99.90
19496;DHT22;9888;48.606;9.630;2023-11-21T08:11:27;6.70;99.90
19496;DHT22;9888;48.606;9.630;2023-11-21T08:13:57;6.70;99.90
19496;DHT22;9888;48.606;9.630;2023-11-21T08:16:25;6.80;99.90
19496;DHT22;9888;48.606;9.630;2023-11-21T08:18:52;7.00;99.90
19496;DHT22;9888;48.606;9.630;2023-11-21T08:21:21;7.10;99.90
19496;DHT22;9888;48.606;9.630;2023-11-21T08:23:51;7.10;99.90
19496;DHT22;9888;48.606;9.630;2023-11-21T08:26:22;7.00;99.90
19496;DHT22;9888;48.606;9.630;2023-11-21T08:28:48;7.10;99.90
19496;DHT22;9888;48.606;9.630;2023-11-21T08:31:16;7.10;99.90
19496;DHT22;9888;48.606;9.630;2023-11-21T08:33:43;7.20;99.90
19496;DHT22;9888;48.606;9.630;2023-11-21T08:36:10;7.40;99.90
19496;DHT22;9888;48.606;9.630;2023-11-21T08:38:41;7.50;99.90
19496;DHT22;9888;48.606;9.630;2023-11-21T08:41:09;7.60;99.90
19496;DHT22;9888;48.606;9.630;2023-11-21T08:43:37;7.70;99.90
19496;DHT22;9888;48.606;9.630;2023-11-21T08:46:07;7.70;99.90
19496;DHT22;9888;48.606;9.630;2023-11-21T08:48:38;7.70;99.90
19496;DHT22;9888;48.606;9.630;2023-11-21T08:51:05;7.80;99.90
19496;DHT22;9888;48.606;9.630;2023-11-21T08:53:33;7.70;99.90
19496;DHT22;9888;48.606;9.630;2023-11-21T08:56:00;7.70;99.90
19496;DHT22;9888;48.606;9.630;2023-11-21T08:58:27;7.60;99.90
19496;DHT22;9888;48.606;9.630;2023-11-21T09:00:54;7.50;99.90
19496;DHT22;9888;48.606;9.630;2023-11-21T09:03:23;7.40;99.90
19496;DHT22;9888;48.606;9.630;2023-11-21T09:05:51;7.40;99.90
19496;DHT22;9888;48.606;9.630;2023-11-21T09:08:19;7.40;99.90
19496;DHT22;9888;48.606;9.630;2023-11-21T09:10:47;7.40;99.90
19496;DHT22;9888;48.606;9.630;2023-11-21T09:13:15;7.40;99.90
19496;DHT22;9888;48.606;9.630;2023-11-21T09:15:43;7.30;99.90
19496;DHT22;9888;48.606;9.630;2023-11-21T09:18:20;7.40;99.90
19496;DHT22;9888;48.606;9.630;2023-11-21T09:20:48;7.40;99.90
19496;DHT22;9888;48.606;9.630;2023-11-21T09:23:15;7.50;99.90
19496;DHT22;9888;48.606;9.630;2023-11-21T09:25:43;7.50;99.90
19496;DHT22;9888;48.606;9.630;2023-11-21T09:28:15;7.60;99.90
19496;DHT22;9888;48.606;9.630;2023-11-21T09:30:42;7.60;99.90
19496;DHT22;9888;48.606;9.630;2023-11-21T09:33:10;7.80;99.90
19496;DHT22;9888;48.606;9.630;2023-11-21T09:35:40;7.80;99.90
19496;DHT22;9888;48.606;9.630;2023-11-21T09:38:07;7.80;99.90
19496;DHT22;9888;48.606;9.630;2023-11-21T09:40:38;7.70;99.90
19496;DHT22;9888;48.606;9.630;2023-11-21T09:43:12;7.70;99.90
19496;DHT22;9888;48.606;9.630;2023-11-21T09:45:48;7.50;99.90
19496;DHT22;9888;48.606;9.630;2023-11-21T09:48:20;7.30;99.90
19496;DHT22;9888;48.606;9.630;2023-11-21T09:50:49;7.00;99.90
19496;DHT22;9888;48.606;9.630;2023-11-21T09:53:22;6.90;99.90
19496;DHT22;9888;48.606;9.630;2023-11-21T09:55:52;7.10;99.90
19496;DHT22;9888;48.606;9.630;2023-11-21T09:58:20;7.30;99.90
19496;DHT22;9888;48.606;9.630;2023-11-21T10:00:55;7.70;99.90
19496;DHT22;9888;48.606;9.630;2023-11-21T10:03:24;8.40;99.90
19496;DHT22;9888;48.606;9.630;2023-11-21T10:05:54;10.10;99.90
19496;DHT22;9888;48.606;9.630;2023-11-21T10:08:27;10.90;99.90
19496;DHT22;9888;48.606;9.630;2023-11-21T10:10:56;10.30;99.90
19496;DHT22;9888;48.606;9.630;2023-11-21T10:13:25;9.70;99.90
19496;DHT22;9888;48.606;9.630;2023-11-21T10:15:53;9.60;99.90
19496;DHT22;9888;48.606;9.630;2023-11-21T10:18:20;9.30;99.90
19496;DHT22;9888;48.606;9.630;2023-11-21T10:20:49;9.10;99.90
19496;DHT22;9888;48.606;9.630;2023-11-21T10:23:21;8.80;99.90
19496;DHT22;9888;48.606;9.630;2023-11-21T10:25:48;8.40;99.90
19496;DHT22;9888;48.606;9.630;2023-11-21T10:28:17;8.30;99.90
19496;DHT22;9888;48.606;9.630;2023-11-21T10:30:49;8.20;99.90
19496;DHT22;9888;48.606;9.630;2023-11-21T10:33:17;8.20;99.90
19496;DHT22;9888;48.606;9.630;2023-11-21T10:35:54;8.10;99.90
19496;DHT22;9888;48.606;9.630;2023-11-21T10:38:22;8.00;99.90
19496;DHT22;9888;48.606;9.630;2023-11-21T10:40:51;7.80;99.90
19496;DHT22;9888;48.606;9.630;2023-11-21T10:43:18;7.90;99.90
19496;DHT22;9888;48.606;9.630;2023-11-21T10:45:46;7.90;99.90
19496;DHT22;9888;48.606;9.630;2023-11-21T10:48:17;7.80;99.90
19496;DHT22;9888;48.606;9.630;2023-11-21T10:50:45;7.80;99.90
19496;DHT22;9888;48.606;9.630;2023-11-21T10:53:13;7.60;99.90
19496;DHT22;9888;48.606;9.630;2023-11-21T10:55:42;7.30;99.90
19496;DHT22;9888;48.606;9.630;2023-11-21T10:58:11;7.00;99.90
19496;DHT22;9888;48.606;9.630;2023-11-21T11:00:41;6.90;99.90
19496;DHT22;9888;48.606;9.630;2023-11-21T11:03:09;6.80;99.90
19496;DHT22;9888;48.606;9.630;2023-11-21T11:05:43;6.70;99.90
19496;DHT22;9888;48.606;9.630;2023-11-21T11:08:18;6.70;99.90
19496;DHT22;9888;48.606;9.630;2023-11-21T11:10:46;6.90;99.90
19496;DHT22;9888;48.606;9.630;2023-11-21T11:13:14;6.90;99.90
19496;DHT22;9888;48.606;9.630;2023-11-21T11:15:42;7.10;99.90
19496;DHT22;9888;48.606;9.630;2023-11-21T11:18:10;7.10;99.90
19496;DHT22;9888;48.606;9.630;2023-11-21T11:20:41;7.30;99.90
19496;DHT22;9888;48.606;9.630;2023-11-21T11:26:08;7.60;99.90
19496;DHT22;9888;48.606;9.630;2023-11-21T11:34:23;8.50;99.90
19496;DHT22;9888;48.606;9.630;2023-11-21T11:37:05;8.90;99.90
19496;DHT22;9888;48.606;9.630;2023-11-21T11:39:42;9.40;99.90
19496;DHT22;9888;48.606;9.630;2023-11-21T11:42:16;9.50;99.90
19496;DHT22;9888;48.606;9.630;2023-11-21T11:47:23;9.70;99.90
19496;DHT22;9888;48.606;9.630;2023-11-21T11:50:12;9.40;99.90
19496;DHT22;9888;48.606;9.630;2023-11-21T11:52:51;9.10;99.90
19496;DHT22;9888;48.606;9.630;2023-11-21T11:55:23;8.80;99.90
19496;DHT22;9888;48.606;9.630;2023-11-21T11:57:52;8.60;99.90
19496;DHT22;9888;48.606;9.630;2023-11-21T12:00:23;8.70;99.90
19496;DHT22;9888;48.606;9.630;2023-11-21T12:03:04;8.90;99.90
19496;DHT22;9888;48.606;9.630;2023-11-21T12:05:33;9.10;99.90
19496;DHT22;9888;48.606;9.630;2023-11-21T12:08:12;9.10;99.90
19496;DHT22;9888;48.606;9.630;2023-11-21T12:10:40;9.20;99.90
19496;DHT22;9888;48.606;9.630;2023-11-21T12:13:09;9.40;99.90
19496;DHT22;9888;48.606;9.630;2023-11-21T12:15:39;9.60;99.90
19496;DHT22;9888;48.606;9.630;2023-11-21T12:18:12;9.70;99.90
19496;DHT22;9888;48.606;9.630;2023-11-21T12:20:41;10.30;99.90
19496;DHT22;9888;48.606;9.630;2023-11-21T12:23:09;10.20;99.90
19496;DHT22;9888;48.606;9.630;2023-11-21T12:25:39;9.90;99.90
19496;DHT22;9888;48.606;9.630;2023-11-21T12:28:10;9.60;99.90
19496;DHT22;9888;48.606;9.630;2023-11-21T12:30:39;9.40;99.90
19496;DHT22;9888;48.606;9.630;2023-11-21T12:33:06;9.20;99.90
19496;DHT22;9888;48.606;9.630;2023-11-21T12:35:38;8.70;99.90
19496;DHT22;9888;48.606;9.630;2023-11-21T12:38:06;8.30;99.90
19496;DHT22;9888;48.606;9.630;2023-11-21T12:40:35;8.00;99.90
19496;DHT22;9888;48.606;9.630;2023-11-21T12:43:02;7.80;99.90
19496;DHT22;9888;48.606;9.630;2023-11-21T12:45:31;7.60;99.90
19496;DHT22;9888;48.606;9.630;2023-11-21T12:48:01;7.60;99.90
19496;DHT22;9888;48.606;9.630;2023-11-21T12:50:35;7.60;99.90
19496;DHT22;9888;48.606;9.630;2023-11-21T12:53:06;7.60;99.90
19496;DHT22;9888;48.606;9.630;2023-11-21T12:55:36;7.70;99.90
19496;DHT22;9888;48.606;9.630;2023-11-21T12:58:09;7.90;99.90
19496;DHT22;9888;48.606;9.630;2023-11-21T13:03:08;8.20;99.90
19496;DHT22;9888;48.606;9.630;2023-11-21T13:05:39;8.40;99.90
19496;DHT22;9888;48.606;9.630;2023-11-21T13:08:17;8.50;99.90
19496;DHT22;9888;48.606;9.630;2023-11-21T13:10:56;8.60;99.90
19496;DHT22;9888;48.606;9.630;2023-11-21T13:13:24;8.50;99.90
19496;DHT22;9888;48.606;9.630;2023-11-21T13:16:02;8.70;99.90
19496;DHT22;9888;48.606;9.630;2023-11-21T13:18:32;8.90;99.90
19496;DHT22;9888;48.606;9.630;2023-11-21T13:21:04;8.90;99.90
19496;DHT22;9888;48.606;9.630;2023-11-21T13:23:38;9.00;99.90
19496;DHT22;9888;48.606;9.630;2023-11-21T13:26:06;9.10;99.90
19496;DHT22;9888;48.606;9.630;2023-11-21T13:28:34;9.10;99.90
19496;DHT22;9888;48.606;9.630;2023-11-21T13:31:03;9.00;99.90
19496;DHT22;9888;48.606;9.630;2023-11-21T13:33:47;8.90;99.90
19496;DHT22;9888;48.606;9.630;2023-11-21T13:36:23;8.70;99.90
19496;DHT22;9888;48.606;9.630;2023-11-21T13:38:50;8.60;99.90
19496;DHT22;9888;48.606;9.630;2023-11-21T13:44:31;8.30;99.90
19496;DHT22;9888;48.606;9.630;2023-11-21T13:47:08;8.30;99.90
19496;DHT22;9888;48.606;9.630;2023-11-21T13:49:35;8.20;99.90
19496;DHT22;9888;48.606;9.630;2023-11-21T13:52:07;8.30;99.90
19496;DHT22;9888;48.606;9.630;2023-11-21T13:54:37;8.40;99.90
19496;DHT22;9888;48.606;9.630;2023-11-21T13:57:04;8.20;99.90
19496;DHT22;9888;48.606;9.630;2023-11-21T13:59:32;8.20;99.90
19496;DHT22;9888;48.606;9.630;2023-11-21T14:02:00;8.10;99.90
19496;DHT22;9888;48.606;9.630;2023-11-21T14:04:43;8.00;99.90
19496;DHT22;9888;48.606;9.630;2023-11-21T14:07:25;7.90;99.90
19496;DHT22;9888;48.606;9.630;2023-11-21T14:10:04;7.90;99.90
19496;DHT22;9888;48.606;9.630;2023-11-21T14:12:34;7.80;99.90
19496;DHT22;9888;48.606;9.630;2023-11-21T14:15:04;7.70;99.90
19496;DHT22;9888;48.606;9.630;2023-11-21T14:17:32;7.70;99.90
19496;DHT22;9888;48.606;9.630;2023-11-21T14:20:01;7.60;99.90
19496;DHT22;9888;48.606;9.630;2023-11-21T14:22:37;7.50;99.90
19496;DHT22;9888;48.606;9.630;2023-11-21T14:25:05;7.50;99.90
19496;DHT22;9888;48.606;9.630;2023-11-21T14:27:33;7.40;99.90
19496;DHT22;9888;48.606;9.630;2023-11-21T14:30:02;7.30;99.90
19496;DHT22;9888;48.606;9.630;2023-11-21T14:32:32;7.20;99.90
19496;DHT22;9888;48.606;9.630;2023-11-21T14:34:59;7.20;99.90
19496;DHT22;9888;48.606;9.630;2023-11-21T14:37:28;7.20;99.90
19496;DHT22;9888;48.606;9.630;2023-11-21T14:39:55;7.20;99.90
19496;DHT22;9888;48.606;9.630;2023-11-21T14:42:23;7.20;99.90
19496;DHT22;9888;48.606;9.630;2023-11-21T14:44:53;7.20;99.90
19496;DHT22;9888;48.606;9.630;2023-11-21T14:47:23;7.10;99.90
19496;DHT22;9888;48.606;9.630;2023-11-21T14:49:53;7.20;99.90
19496;DHT22;9888;48.606;9.630;2023-11-21T14:52:23;7.20;99.90
19496;DHT22;9888;48.606;9.630;2023-11-21T14:55:13;7.10;99.90
19496;DHT22;9888;48.606;9.630;2023-11-21T14:57:49;7.10;99.90
19496;DHT22;9888;48.606;9.630;2023-11-21T15:00:21;7.10;99.90
19496;DHT22;9888;48.606;9.630;2023-11-21T15:03:07;7.20;99.90
19496;DHT22;9888;48.606;9.630;2023-11-21T15:05:35;7.20;99.90
19496;DHT22;9888;48.606;9.630;2023-11-21T15:08:04;7.20;99.90
19496;DHT22;9888;48.606;9.630;2023-11-21T15:10:47;7.20;99.90
19496;DHT22;9888;48.606;9.630;2023-11-21T15:13:20;7.10;99.90
19496;DHT22;9888;48.606;9.630;2023-11-21T15:15:50;7.10;99.90
19496;DHT22;9888;48.606;9.630;2023-11-21T15:18:18;7.10;99.90
19496;DHT22;9888;48.606;9.630;2023-11-21T15:20:45;7.10;99.90
19496;DHT22;9888;48.606;9.630;2023-11-21T15:23:12;7.00;99.90
19496;DHT22;9888;48.606;9.630;2023-11-21T15:25:45;7.00;99.90
19496;DHT22;9888;48.606;9.630;2023-11-21T15:28:12;6.90;99.90
19496;DHT22;9888;48.606;9.630;2023-11-21T15:30:39;6.80;99.90
19496;DHT22;9888;48.606;9.630;2023-11-21T15:33:06;6.80;99.90
19496;DHT22;9888;48.606;9.630;2023-11-21T15:35:37;6.80;99.90
19496;DHT22;9888;48.606;9.630;2023-11-21T15:38:07;6.80;99.90
19496;DHT22;9888;48.606;9.630;2023-11-21T15:40:35;6.80;99.90
19496;DHT22;9888;48.606;9.630;2023-11-21T15:43:03;6.70;99.90
19496;DHT22;9888;48.606;9.630;2023-11-21T15:45:30;6.80;99.90
19496;DHT22;9888;48.606;9.630;2023-11-21T15:47:57;6.70;99.90
19496;DHT22;9888;48.606;9.630;2023-11-21T15:50:24;6.70;99.90
19496;DHT22;9888;48.606;9.630;2023-11-21T15:52:52;6.70;99.90
19496;DHT22;9888;48.606;9.630;2023-11-21T15:55:20;6.70;99.90
19496;DHT22;9888;48.606;9.630;2023-11-21T15:57:47;6.70;99.90
19496;DHT22;9888;48.606;9.630;2023-11-21T16:00:16;6.60;99.90
19496;DHT22;9888;48.606;9.630;2023-11-21T16:02:48;6.70;99.90
19496;DHT22;9888;48.606;9.630;2023-11-21T16:05:14;6.70;99.90
19496;DHT22;9888;48.606;9.630;2023-11-21T16:07:42;6.70;99.90
19496;DHT22;9888;48.606;9.630;2023-11-21T16:10:10;6.80;99.90
19496;DHT22;9888;48.606;9.630;2023-11-21T16:12:40;6.80;99.90
19496;DHT22;9888;48.606;9.630;2023-11-21T16:15:08;6.80;99.90
19496;DHT22;9888;48.606;9.630;2023-11-21T16:17:36;6.70;99.90
19496;DHT22;9888;48.606;9.630;2023-11-21T16:20:04;6.70;99.90
19496;DHT22;9888;48.606;9.630;2023-11-21T16:22:35;6.70;99.90
19496;DHT22;9888;48.606;9.630;2023-11-21T16:25:02;6.60;99.90
19496;DHT22;9888;48.606;9.630;2023-11-21T16:27:38;6.70;99.90
19496;DHT22;9888;48.606;9.630;2023-11-21T16:30:06;6.60;99.90
19496;DHT22;9888;48.606;9.630;2023-11-21T16:32:35;6.70;99.90
19496;DHT22;9888;48.606;9.630;2023-11-21T16:35:07;6.60;99.90
19496;DHT22;9888;48.606;9.630;2023-11-21T16:37:36;6.60;99.90
19496;DHT22;9888;48.606;9.630;2023-11-21T16:40:05;6.60;99.90